createdAt,value
2018-03-27T00:01:34.146Z,84.60
2018-03-27T00:04:00.278Z,84.80
2018-03-27T00:06:26.391Z,84.30
2018-03-27T00:08:53.267Z,83.90
2018-03-27T00:11:19.411Z,83.90
2018-03-27T00:13:45.610Z,83.80
2018-03-27T00:16:14.661Z,83.10
2018-03-27T00:18:41.631Z,83.50
2018-03-27T00:21:07.790Z,83.50
2018-03-27T00:23:33.894Z,83.30
2018-03-27T00:26:00.044Z,83.80
2018-03-27T00:28:38.365Z,83.70
2018-03-27T00:31:16.736Z,84.60
2018-03-27T00:33:55.030Z,84.80
2018-03-27T00:36:33.520Z,85.00
2018-03-27T00:39:11.706Z,84.80
2018-03-27T00:44:57.587Z,84.10
2018-03-27T00:47:23.715Z,83.70
2018-03-27T00:49:50.386Z,83.70
2018-03-27T00:52:16.654Z,84.10
2018-03-27T00:54:42.761Z,84.50
2018-03-27T00:57:08.870Z,84.50
2018-03-27T00:59:35.759Z,84.40
2018-03-27T01:02:01.881Z,84.40
2018-03-27T01:04:28.731Z,84.90
2018-03-27T01:06:55.645Z,84.90
2018-03-27T01:09:21.796Z,85.20
2018-03-27T01:11:48.588Z,85.30
2018-03-27T01:14:14.821Z,85.20
2018-03-27T01:16:43.284Z,84.90
2018-03-27T01:19:09.551Z,84.90
2018-03-27T01:21:35.755Z,85.60
2018-03-27T01:24:02.003Z,86.10
2018-03-27T01:26:28.141Z,86.60
2018-03-27T01:28:54.228Z,86.50
2018-03-27T01:31:20.330Z,86.30
2018-03-27T01:33:46.486Z,87.10
2018-03-27T01:36:13.342Z,86.80
2018-03-27T01:38:42.093Z,86.40
2018-03-27T01:41:09.597Z,86.50
2018-03-27T01:43:35.918Z,86.30
2018-03-27T01:46:02.068Z,86.70
2018-03-27T01:48:28.205Z,86.90
2018-03-27T01:50:54.323Z,87.30
2018-03-27T01:53:20.466Z,87.60
2018-03-27T01:55:46.643Z,87.60
2018-03-27T01:58:12.784Z,87.40
2018-03-27T02:00:38.925Z,87.50
2018-03-27T02:03:05.054Z,87.30
2018-03-27T02:05:31.210Z,87.40
2018-03-27T02:07:58.057Z,87.50
2018-03-27T02:10:24.927Z,87.30
2018-03-27T02:12:57.251Z,87.30
2018-03-27T02:15:30.856Z,88.20
2018-03-27T02:18:03.171Z,87.60
2018-03-27T02:20:35.439Z,87.70
2018-03-27T02:23:02.528Z,87.60
2018-03-27T02:25:28.646Z,87.70
2018-03-27T02:27:54.751Z,87.70
2018-03-27T02:30:20.881Z,87.70
2018-03-27T02:32:47.027Z,87.50
2018-03-27T02:35:13.185Z,87.60
2018-03-27T02:37:39.381Z,87.80
2018-03-27T02:40:06.248Z,88.30
2018-03-27T02:42:33.080Z,88.10
2018-03-27T02:44:59.232Z,88.00
2018-03-27T02:47:25.369Z,87.60
2018-03-27T02:49:52.225Z,87.90
2018-03-27T02:52:19.086Z,87.60
2018-03-27T02:54:45.227Z,87.50
2018-03-27T02:57:15.118Z,87.70
2018-03-27T02:59:41.271Z,87.60
2018-03-27T03:02:10.419Z,88.00
2018-03-27T03:04:36.680Z,88.00
2018-03-27T03:07:02.825Z,88.20
2018-03-27T03:09:28.936Z,88.40
2018-03-27T03:11:55.074Z,88.50
2018-03-27T03:14:21.211Z,88.60
2018-03-27T03:16:47.362Z,88.60
2018-03-27T03:19:13.494Z,88.30
2018-03-27T03:21:39.698Z,88.50
2018-03-27T03:24:07.189Z,88.50
2018-03-27T03:26:33.482Z,87.90
2018-03-27T03:28:59.602Z,87.90
2018-03-27T03:31:25.717Z,87.80
2018-03-27T03:33:51.854Z,88.20
2018-03-27T03:36:18.675Z,88.80
2018-03-27T03:38:44.810Z,88.80
2018-03-27T03:41:10.934Z,88.40
2018-03-27T03:43:37.054Z,88.10
2018-03-27T03:46:03.230Z,87.90
2018-03-27T03:48:29.350Z,88.20
2018-03-27T03:50:55.488Z,88.70
2018-03-27T03:53:21.607Z,89.10
2018-03-27T03:55:47.751Z,88.60
2018-03-27T03:58:13.938Z,88.20
2018-03-27T04:00:40.806Z,87.90
2018-03-27T04:03:07.661Z,87.90
2018-03-27T04:05:33.777Z,87.90
2018-03-27T04:07:59.899Z,87.80
2018-03-27T04:10:26.032Z,88.10
2018-03-27T04:12:52.220Z,87.90
2018-03-27T04:15:27.347Z,87.40
2018-03-27T04:17:53.475Z,87.50
2018-03-27T04:20:19.656Z,87.60
2018-03-27T04:22:46.517Z,88.30
2018-03-27T04:25:12.666Z,88.30
2018-03-27T04:27:38.891Z,88.30
2018-03-27T04:30:05.074Z,87.90
2018-03-27T04:32:31.239Z,88.10
2018-03-27T04:34:57.490Z,87.90
2018-03-27T04:37:24.413Z,88.70
2018-03-27T04:39:50.547Z,88.70
2018-03-27T04:42:16.774Z,89.00
2018-03-27T04:44:43.201Z,88.60
2018-03-27T04:47:09.290Z,88.30
2018-03-27T04:49:35.504Z,88.20
2018-03-27T04:52:01.630Z,88.20
2018-03-27T04:54:27.842Z,88.30
2018-03-27T04:56:54.721Z,88.10
2018-03-27T04:59:20.934Z,88.10
2018-03-27T05:01:47.114Z,88.10
2018-03-27T05:04:13.253Z,88.40
2018-03-27T05:06:39.372Z,88.40
2018-03-27T05:09:06.668Z,88.40
2018-03-27T05:11:32.842Z,88.90
2018-03-27T05:13:58.991Z,88.50
2018-03-27T05:16:25.962Z,88.70
2018-03-27T05:18:52.842Z,88.70
2018-03-27T05:21:19.085Z,88.70
2018-03-27T05:23:45.242Z,88.80
2018-03-27T05:26:11.395Z,88.90
2018-03-27T05:28:37.510Z,88.70
2018-03-27T05:31:03.661Z,88.40
2018-03-27T05:33:29.834Z,88.30
2018-03-27T05:35:55.921Z,88.50
2018-03-27T05:38:22.242Z,88.50
2018-03-27T05:40:48.435Z,88.20
2018-03-27T05:43:14.559Z,88.20
2018-03-27T05:45:40.788Z,88.60
2018-03-27T05:48:06.915Z,88.70
2018-03-27T05:50:33.019Z,89.00
2018-03-27T05:52:59.199Z,88.90
2018-03-27T05:55:25.386Z,88.80
2018-03-27T05:57:51.563Z,88.70
2018-03-27T06:00:17.819Z,88.50
2018-03-27T06:02:43.980Z,88.40
2018-03-27T06:05:13.620Z,88.70
2018-03-27T06:07:39.834Z,88.70
2018-03-27T06:10:05.998Z,88.70
2018-03-27T06:12:32.098Z,88.60
2018-03-27T06:14:58.273Z,88.40
2018-03-27T06:17:24.469Z,88.40
2018-03-27T06:19:51.686Z,88.10
2018-03-27T06:22:19.117Z,88.00
2018-03-27T06:24:45.428Z,88.10
2018-03-27T06:27:12.494Z,87.90
2018-03-27T06:29:38.795Z,87.90
2018-03-27T06:32:05.003Z,88.10
2018-03-27T06:34:31.443Z,88.00
2018-03-27T06:36:57.782Z,88.20
2018-03-27T06:39:24.045Z,88.20
2018-03-27T06:41:50.233Z,87.90
2018-03-27T06:44:16.470Z,87.80
2018-03-27T06:46:42.978Z,87.60
2018-03-27T06:49:09.600Z,87.60
2018-03-27T06:51:35.946Z,87.50
2018-03-27T06:54:02.316Z,87.50
2018-03-27T06:56:28.812Z,87.30
2018-03-27T06:58:55.038Z,87.30
2018-03-27T07:01:21.335Z,87.00
2018-03-27T07:03:47.610Z,86.90
2018-03-27T07:06:14.663Z,86.20
2018-03-27T07:08:40.908Z,86.10
2018-03-27T07:11:07.173Z,85.90
2018-03-27T07:13:34.240Z,85.50
2018-03-27T07:16:00.522Z,85.50
2018-03-27T07:18:26.868Z,84.80
2018-03-27T07:20:53.099Z,84.50
2018-03-27T07:23:19.353Z,84.40
2018-03-27T07:25:45.690Z,83.60
2018-03-27T07:28:11.840Z,83.10
2018-03-27T07:30:38.103Z,82.90
2018-03-27T07:33:04.219Z,82.90
2018-03-27T07:35:31.528Z,81.80
2018-03-27T07:37:57.712Z,81.70
2018-03-27T07:40:23.996Z,81.00
2018-03-27T07:42:50.304Z,81.10
2018-03-27T07:45:16.568Z,81.10
2018-03-27T07:47:42.735Z,79.50
2018-03-27T07:50:08.912Z,78.00
2018-03-27T07:52:35.113Z,77.30
2018-03-27T07:55:02.079Z,75.60
2018-03-27T07:57:28.291Z,75.50
2018-03-27T07:59:54.429Z,74.10
2018-03-27T08:02:20.718Z,74.10
2018-03-27T08:04:46.847Z,73.70
2018-03-27T08:07:13.707Z,72.00
2018-03-27T08:09:40.667Z,72.30
2018-03-27T08:12:07.586Z,71.80
2018-03-27T08:14:33.741Z,71.80
2018-03-27T08:16:59.999Z,71.20
2018-03-27T08:19:27.400Z,69.80
2018-03-27T08:21:53.662Z,69.60
2018-03-27T08:24:20.335Z,68.90
2018-03-27T08:26:46.499Z,68.00
2018-03-27T08:29:12.853Z,67.50
2018-03-27T08:31:39.106Z,67.20
2018-03-27T08:34:05.402Z,67.50
2018-03-27T08:36:31.705Z,66.80
2018-03-27T08:38:57.902Z,66.20
2018-03-27T08:41:24.603Z,66.90
2018-03-27T08:43:50.860Z,65.70
2018-03-27T08:46:19.852Z,66.90
2018-03-27T08:48:46.400Z,66.10
2018-03-27T08:51:12.590Z,66.20
2018-03-27T08:53:38.716Z,65.80
2018-03-27T08:56:04.942Z,65.80
2018-03-27T08:58:31.296Z,65.20
2018-03-27T09:00:57.699Z,64.00
2018-03-27T09:03:24.177Z,63.60
2018-03-27T09:05:59.472Z,62.30
2018-03-27T09:08:26.421Z,62.70
2018-03-27T09:10:53.673Z,62.70
2018-03-27T09:13:20.006Z,62.30
2018-03-27T09:15:46.254Z,60.70
2018-03-27T09:18:13.681Z,61.90
2018-03-27T09:20:42.978Z,61.60
2018-03-27T09:23:09.707Z,59.20
2018-03-27T09:25:37.246Z,59.00
2018-03-27T09:28:03.453Z,58.80
2018-03-27T09:30:31.639Z,57.20
2018-03-27T09:32:57.796Z,58.10
2018-03-27T09:35:23.960Z,57.90
2018-03-27T09:37:51.044Z,55.60
2018-03-27T09:40:17.358Z,55.60
2018-03-27T09:42:43.586Z,55.90
2018-03-27T09:45:09.802Z,54.80
2018-03-27T09:47:35.950Z,54.90
2018-03-27T09:50:02.174Z,54.00
2018-03-27T09:52:29.177Z,54.20
2018-03-27T09:54:55.984Z,54.20
2018-03-27T09:57:22.545Z,54.20
2018-03-27T09:59:49.394Z,52.60
2018-03-27T10:02:15.751Z,52.60
2018-03-27T10:04:42.044Z,52.90
2018-03-27T10:07:09.040Z,50.90
2018-03-27T10:09:36.075Z,49.00
2018-03-27T10:12:03.004Z,48.40
2018-03-27T10:14:29.114Z,47.80
2018-03-27T10:16:55.382Z,45.90
2018-03-27T10:19:22.767Z,44.90
2018-03-27T10:21:49.015Z,44.30
2018-03-27T10:24:15.308Z,44.20
2018-03-27T10:26:41.738Z,43.90
2018-03-27T10:29:07.960Z,43.80
2018-03-27T10:31:34.150Z,43.70
2018-03-27T10:34:00.415Z,42.50
2018-03-27T10:36:26.680Z,41.30
2018-03-27T10:38:52.838Z,40.30
2018-03-27T10:41:20.036Z,40.70
2018-03-27T10:43:46.146Z,40.90
2018-03-27T10:46:12.551Z,41.00
2018-03-27T10:48:38.645Z,42.30
2018-03-27T10:51:04.917Z,43.40
2018-03-27T10:53:31.079Z,43.10
2018-03-27T10:55:57.853Z,42.90
2018-03-27T10:58:24.075Z,42.70
2018-03-27T11:00:50.306Z,43.10
2018-03-27T11:03:17.232Z,42.80
2018-03-27T11:05:43.365Z,43.60
2018-03-27T11:08:10.314Z,44.50
2018-03-27T11:10:36.418Z,44.50
2018-03-27T11:13:02.772Z,44.30
2018-03-27T11:15:29.728Z,42.70
2018-03-27T11:17:56.758Z,43.40
2018-03-27T11:20:23.055Z,43.00
2018-03-27T11:22:49.685Z,43.00
2018-03-27T11:25:18.435Z,42.50
2018-03-27T11:27:44.744Z,42.20
2018-03-27T11:30:10.880Z,41.50
2018-03-27T11:32:37.821Z,42.40
2018-03-27T11:35:04.833Z,43.10
2018-03-27T11:37:30.944Z,43.00
2018-03-27T11:39:57.130Z,43.90
2018-03-27T11:42:23.297Z,43.40
2018-03-27T11:44:50.199Z,42.80
2018-03-27T11:47:16.427Z,42.80
2018-03-27T11:49:43.207Z,42.80
2018-03-27T11:52:09.525Z,42.20
2018-03-27T11:54:35.797Z,42.60
2018-03-27T11:57:01.920Z,42.50
2018-03-27T11:59:28.007Z,41.70
2018-03-27T12:01:55.267Z,42.20
2018-03-27T12:04:21.455Z,41.90
2018-03-27T12:06:47.582Z,42.60
2018-03-27T12:09:13.975Z,41.90
2018-03-27T12:11:40.272Z,41.70
2018-03-27T12:14:06.513Z,41.60
2018-03-27T12:16:32.657Z,42.30
2018-03-27T12:18:58.791Z,41.70
2018-03-27T12:21:24.910Z,41.60
2018-03-27T12:23:51.735Z,42.20
2018-03-27T12:26:17.831Z,42.20
2018-03-27T12:28:43.952Z,42.10
2018-03-27T12:31:10.048Z,42.20
2018-03-27T12:33:36.245Z,43.60
2018-03-27T12:36:02.403Z,42.50
2018-03-27T12:38:28.793Z,43.00
2018-03-27T12:40:54.957Z,43.50
2018-03-27T12:43:21.166Z,43.80
2018-03-27T12:45:48.124Z,45.30
2018-03-27T12:48:14.293Z,45.30
2018-03-27T12:50:40.527Z,45.80
2018-03-27T12:53:08.870Z,46.20
2018-03-27T12:55:35.113Z,46.30
2018-03-27T12:58:01.271Z,47.60
2018-03-27T13:00:28.213Z,47.30
2018-03-27T13:02:54.764Z,47.20
2018-03-27T13:05:21.166Z,48.50
2018-03-27T13:07:47.384Z,48.60
2018-03-27T13:10:13.569Z,49.20
2018-03-27T13:12:39.793Z,49.20
2018-03-27T13:15:08.107Z,49.30
2018-03-27T13:17:34.388Z,49.60
2018-03-27T13:20:01.116Z,50.00
2018-03-27T13:22:27.406Z,50.30
2018-03-27T13:24:54.044Z,52.60
2018-03-27T13:27:20.198Z,52.80
2018-03-27T13:29:46.996Z,53.60
2018-03-27T13:32:13.979Z,54.10
2018-03-27T13:34:40.117Z,54.10
2018-03-27T13:37:07.576Z,54.20
2018-03-27T13:39:33.798Z,54.70
2018-03-27T13:41:59.950Z,54.80
2018-03-27T13:44:29.607Z,55.00
2018-03-27T13:46:55.946Z,55.50
2018-03-27T13:49:22.288Z,55.60
2018-03-27T13:51:48.559Z,55.40
2018-03-27T13:54:14.691Z,55.20
2018-03-27T13:56:40.922Z,55.00
2018-03-27T13:59:07.067Z,55.00
2018-03-27T14:01:33.343Z,55.20
2018-03-27T14:03:59.522Z,55.20
2018-03-27T14:06:26.382Z,57.40
2018-03-27T14:08:52.544Z,57.40
2018-03-27T14:11:19.131Z,57.00
2018-03-27T14:13:45.388Z,57.70
2018-03-27T14:16:11.585Z,57.60
2018-03-27T14:18:38.006Z,58.40
2018-03-27T14:21:05.252Z,58.80
2018-03-27T14:23:31.495Z,58.90
2018-03-27T14:25:57.842Z,60.70
2018-03-27T14:28:25.059Z,64.20
2018-03-27T14:30:51.320Z,64.20
2018-03-27T14:33:18.462Z,63.90
2018-03-27T14:35:44.747Z,65.70
2018-03-27T14:38:11.024Z,65.10
2018-03-27T14:40:37.236Z,66.40
2018-03-27T14:43:03.581Z,67.60
2018-03-27T14:45:30.598Z,70.60
2018-03-27T14:47:57.253Z,70.50
2018-03-27T14:50:24.888Z,70.40
2018-03-27T14:52:51.144Z,70.50
2018-03-27T14:55:17.689Z,70.60
2018-03-27T14:57:47.161Z,70.70
2018-03-27T15:00:13.495Z,70.60
2018-03-27T15:02:39.640Z,69.80
2018-03-27T15:05:05.942Z,70.10
2018-03-27T15:07:32.075Z,70.70
2018-03-27T15:09:59.023Z,72.00
2018-03-27T15:12:25.119Z,71.40
2018-03-27T15:14:51.324Z,72.10
2018-03-27T15:17:17.484Z,73.40
2018-03-27T15:19:43.687Z,72.50
2018-03-27T15:22:10.190Z,73.90
2018-03-27T15:24:36.390Z,76.00
2018-03-27T15:27:02.631Z,76.20
2018-03-27T15:29:28.845Z,77.80
2018-03-27T15:31:56.465Z,77.60
2018-03-27T15:34:22.611Z,77.60
2018-03-27T15:36:48.817Z,78.70
2018-03-27T15:39:14.912Z,78.30
2018-03-27T15:41:41.084Z,79.50
2018-03-27T15:44:07.463Z,80.20
2018-03-27T15:46:34.730Z,80.40
2018-03-27T15:49:00.997Z,81.90
2018-03-27T15:51:27.985Z,82.50
2018-03-27T15:53:54.256Z,82.40
2018-03-27T15:56:20.745Z,82.70
2018-03-27T15:58:47.681Z,83.10
2018-03-27T16:01:15.073Z,83.10
2018-03-27T16:03:43.199Z,83.10
2018-03-27T16:06:10.272Z,83.10
2018-03-27T16:08:38.785Z,83.40
2018-03-27T16:11:06.517Z,84.10
2018-03-27T16:13:32.795Z,84.00
2018-03-27T16:15:58.929Z,84.80
2018-03-27T16:18:25.072Z,85.80
2018-03-27T16:20:51.257Z,85.90
2018-03-27T16:23:18.123Z,86.40
2018-03-27T16:25:45.055Z,85.50
2018-03-27T16:28:11.163Z,84.40
2018-03-27T16:30:37.284Z,83.90
2018-03-27T16:33:03.443Z,84.40
2018-03-27T16:35:29.586Z,84.10
2018-03-27T16:37:55.736Z,84.80
2018-03-27T16:40:21.954Z,84.40
2018-03-27T16:42:48.094Z,84.30
2018-03-27T16:45:14.232Z,85.30
2018-03-27T16:47:40.363Z,86.20
2018-03-27T16:50:06.550Z,85.80
2018-03-27T16:52:36.116Z,85.60
2018-03-27T16:55:02.301Z,86.50
2018-03-27T16:57:28.399Z,87.00
2018-03-27T16:59:55.237Z,87.20
2018-03-27T17:02:21.834Z,87.20
2018-03-27T17:04:48.056Z,88.30
2018-03-27T17:07:14.210Z,88.30
2018-03-27T17:09:44.997Z,87.70
2018-03-27T17:12:11.898Z,87.70
2018-03-27T17:14:38.025Z,87.60
2018-03-27T17:17:13.876Z,87.40
2018-03-27T17:19:40.102Z,86.70
2018-03-27T17:22:15.364Z,87.00
2018-03-27T17:24:44.890Z,86.90
2018-03-27T17:27:11.201Z,86.90
2018-03-27T17:29:45.895Z,87.80
2018-03-27T17:32:12.198Z,88.20
2018-03-27T17:34:38.638Z,88.20
2018-03-27T17:37:04.873Z,88.40
2018-03-27T17:39:39.633Z,88.20
2018-03-27T17:42:07.582Z,89.40
2018-03-27T17:44:33.879Z,89.40
2018-03-27T17:47:00.084Z,89.40
2018-03-27T17:49:26.543Z,89.40
2018-03-27T17:51:52.752Z,89.60
2018-03-27T17:54:19.083Z,90.00
2018-03-27T17:56:45.390Z,90.10
2018-03-27T17:59:11.693Z,90.10
2018-03-27T18:01:37.914Z,90.20
2018-03-27T18:04:04.666Z,89.80
2018-03-27T18:06:32.386Z,90.00
2018-03-27T18:08:58.824Z,90.10
2018-03-27T18:11:26.491Z,90.20
2018-03-27T18:13:52.863Z,90.20
2018-03-27T18:16:19.107Z,90.10
2018-03-27T18:18:45.487Z,90.20
2018-03-27T18:21:12.906Z,90.20
2018-03-27T18:23:40.068Z,90.30
2018-03-27T18:26:06.364Z,90.40
2018-03-27T18:28:33.431Z,90.50
2018-03-27T18:30:59.915Z,90.40
2018-03-27T18:33:26.988Z,90.60
2018-03-27T18:35:53.367Z,90.60
2018-03-27T18:38:19.608Z,90.50
2018-03-27T18:40:45.914Z,90.40
2018-03-27T18:43:13.281Z,90.60
2018-03-27T18:45:42.640Z,90.70
2018-03-27T18:48:12.447Z,90.50
2018-03-27T18:50:38.887Z,90.50
2018-03-27T18:53:07.227Z,90.60
2018-03-27T18:55:33.764Z,90.70
2018-03-27T18:58:00.512Z,90.70
2018-03-27T19:00:28.047Z,90.80
2018-03-27T19:02:54.405Z,90.70
2018-03-27T19:05:20.713Z,90.90
2018-03-27T19:07:47.572Z,90.90
2018-03-27T19:10:14.736Z,90.90
2018-03-27T19:12:43.331Z,90.90
2018-03-27T19:15:10.240Z,90.90
2018-03-27T19:17:36.630Z,90.90
2018-03-27T19:20:04.480Z,90.70
2018-03-27T19:22:30.724Z,90.70
2018-03-27T19:24:56.906Z,90.80
2018-03-27T19:27:23.155Z,90.90
2018-03-27T19:29:49.269Z,90.80
2018-03-27T19:32:16.479Z,90.80
2018-03-27T19:34:43.621Z,90.80
2018-03-27T19:37:15.368Z,90.70
2018-03-27T19:39:42.701Z,90.70
2018-03-27T21:40:02.607Z,91.30
2018-03-27T21:42:28.791Z,91.20
2018-03-27T21:44:55.015Z,91.20
2018-03-27T21:47:21.956Z,91.30
2018-03-27T21:49:48.352Z,91.30
2018-03-27T21:52:14.463Z,91.30
2018-03-27T21:54:40.934Z,91.50
2018-03-27T21:57:07.152Z,91.50
2018-03-27T21:59:33.424Z,91.50
2018-03-27T22:01:59.700Z,91.60
2018-03-27T22:04:25.912Z,91.70
2018-03-27T22:06:52.098Z,91.60
2018-03-27T22:09:18.380Z,91.60
2018-03-27T22:11:46.396Z,91.70
2018-03-27T22:14:12.524Z,91.80
2018-03-27T22:16:38.740Z,91.90
2018-03-27T22:19:04.978Z,91.70
2018-03-27T22:21:31.186Z,91.80
2018-03-27T22:23:58.143Z,91.90
2018-03-27T22:26:24.263Z,92.20
2018-03-27T22:28:50.405Z,91.90
2018-03-27T22:31:16.580Z,92.00
2018-03-27T22:33:43.512Z,92.10
2018-03-27T22:36:10.659Z,92.10
2018-03-27T22:38:36.892Z,92.10
2018-03-27T22:41:05.596Z,92.00
2018-03-27T22:43:31.944Z,92.20
2018-03-27T22:45:58.134Z,92.30
2018-03-27T22:48:24.259Z,92.30
2018-03-27T22:50:51.184Z,92.40
2018-03-27T22:53:17.344Z,92.40
2018-03-27T22:55:45.709Z,92.60
2018-03-27T22:58:13.845Z,92.50
2018-03-27T23:00:40.205Z,92.50
2018-03-27T23:03:06.302Z,92.30
2018-03-27T23:05:33.211Z,92.40
2018-03-27T23:07:59.378Z,92.40
2018-03-27T23:10:26.309Z,92.50
2018-03-27T23:12:52.743Z,92.30
2018-03-27T23:15:18.859Z,92.30
2018-03-27T23:17:45.084Z,92.20
2018-03-27T23:20:14.315Z,92.30
2018-03-27T23:22:40.537Z,92.30
2018-03-27T23:25:07.483Z,92.40
2018-03-27T23:27:33.700Z,92.40
2018-03-27T23:29:59.854Z,92.50
2018-03-27T23:32:25.969Z,92.60
2018-03-27T23:34:52.235Z,92.60
2018-03-27T23:37:18.411Z,92.50
2018-03-27T23:39:44.539Z,92.60
2018-03-27T23:42:10.682Z,92.40
2018-03-27T23:44:37.628Z,92.50
2018-03-27T23:47:08.721Z,92.40
2018-03-27T23:49:34.835Z,92.40
2018-03-27T23:52:00.962Z,92.50
2018-03-27T23:54:27.816Z,92.50
2018-03-27T23:56:55.447Z,92.50
2018-03-27T23:59:21.714Z,92.40
